sensor_id;sensor_type;location;lat;lon;timestamp;pressure;altitude;pressure_sealevel;temperature;humidity
78064;BME280;67429;51.596;-3.264;2023-11-21T00:00:39;99574.92;;;9.63;72.30
78064;BME280;67429;51.596;-3.264;2023-11-21T00:03:05;99579.52;;;10.61;71.13
78064;BME280;67429;51.596;-3.264;2023-11-21T00:05:30;99577.93;;;11.21;68.25
78064;BME280;67429;51.596;-3.264;2023-11-21T00:07:57;99581.79;;;11.30;68.14
78064;BME280;67429;51.596;-3.264;2023-11-21T00:10:22;99587.86;;;10.70;68.74
78064;BME280;67429;51.596;-3.264;2023-11-21T00:12:47;99590.82;;;11.30;66.03
78064;BME280;67429;51.596;-3.264;2023-11-21T00:15:13;99595.61;;;11.32;66.73
78064;BME280;67429;51.596;-3.264;2023-11-21T00:17:39;99595.17;;;12.00;64.86
78064;BME280;67429;51.596;-3.264;2023-11-21T00:20:06;99593.63;;;10.28;68.54
78064;BME280;67429;51.596;-3.264;2023-11-21T00:22:30;99596.61;;;9.59;72.12
78064;BME280;67429;51.596;-3.264;2023-11-21T00:24:55;99595.88;;;10.39;70.76
78064;BME280;67429;51.596;-3.264;2023-11-21T00:27:21;99596.08;;;10.41;70.21
78064;BME280;67429;51.596;-3.264;2023-11-21T00:29:47;99602.59;;;11.49;68.30
78064;BME280;67429;51.596;-3.264;2023-11-21T00:32:12;99604.35;;;10.68;68.84
78064;BME280;67429;51.596;-3.264;2023-11-21T00:34:38;99605.63;;;11.33;69.29
78064;BME280;67429;51.596;-3.264;2023-11-21T00:37:04;99615.10;;;11.94;66.89
78064;BME280;67429;51.596;-3.264;2023-11-21T00:39:29;99618.96;;;11.91;65.30
78064;BME280;67429;51.596;-3.264;2023-11-21T00:41:55;99618.13;;;10.40;69.98
78064;BME280;67429;51.596;-3.264;2023-11-21T00:44:20;99620.69;;;11.30;66.93
78064;BME280;67429;51.596;-3.264;2023-11-21T00:46:46;99622.68;;;11.50;65.72
78064;BME280;67429;51.596;-3.264;2023-11-21T00:49:11;99623.81;;;12.01;65.96
78064;BME280;67429;51.596;-3.264;2023-11-21T00:51:37;99620.78;;;12.15;65.64
78064;BME280;67429;51.596;-3.264;2023-11-21T00:54:03;99621.38;;;11.67;66.40
78064;BME280;67429;51.596;-3.264;2023-11-21T00:56:29;99622.24;;;10.92;68.17
78064;BME280;67429;51.596;-3.264;2023-11-21T00:58:54;99626.46;;;11.66;66.80
78064;BME280;67429;51.596;-3.264;2023-11-21T01:01:20;99637.10;;;12.15;66.21
78064;BME280;67429;51.596;-3.264;2023-11-21T01:03:46;99638.49;;;11.49;67.83
78064;BME280;67429;51.596;-3.264;2023-11-21T01:06:11;99635.51;;;11.44;67.96
78064;BME280;67429;51.596;-3.264;2023-11-21T01:08:36;99644.13;;;12.51;65.08
78064;BME280;67429;51.596;-3.264;2023-11-21T01:11:02;99651.02;;;13.24;63.28
78064;BME280;67429;51.596;-3.264;2023-11-21T01:13:28;99659.53;;;12.20;63.17
78064;BME280;67429;51.596;-3.264;2023-11-21T01:15:54;99665.97;;;13.20;63.19
78064;BME280;67429;51.596;-3.264;2023-11-21T01:18:19;99675.22;;;13.16;62.54
78064;BME280;67429;51.596;-3.264;2023-11-21T01:20:44;99680.79;;;12.43;63.24
78064;BME280;67429;51.596;-3.264;2023-11-21T01:23:10;99682.95;;;10.63;67.54
78064;BME280;67429;51.596;-3.264;2023-11-21T01:25:35;99686.98;;;10.19;70.68
78064;BME280;67429;51.596;-3.264;2023-11-21T01:28:01;99692.35;;;11.05;70.09
78064;BME280;67429;51.596;-3.264;2023-11-21T01:30:27;99698.36;;;10.82;68.49
78064;BME280;67429;51.596;-3.264;2023-11-21T01:32:52;99700.75;;;11.48;68.47
78064;BME280;67429;51.596;-3.264;2023-11-21T01:35:17;99697.83;;;10.51;70.16
78064;BME280;67429;51.596;-3.264;2023-11-21T01:37:43;99710.10;;;10.92;69.92
78064;BME280;67429;51.596;-3.264;2023-11-21T01:40:10;99714.44;;;10.50;70.41
78064;BME280;67429;51.596;-3.264;2023-11-21T01:42:34;99712.56;;;10.49;70.57
78064;BME280;67429;51.596;-3.264;2023-11-21T01:45:00;99714.70;;;11.11;70.08
78064;BME280;67429;51.596;-3.264;2023-11-21T01:47:26;99721.09;;;9.94;74.32
78064;BME280;67429;51.596;-3.264;2023-11-21T01:49:51;99726.72;;;10.46;73.05
78064;BME280;67429;51.596;-3.264;2023-11-21T01:52:17;99731.49;;;10.32;71.86
78064;BME280;67429;51.596;-3.264;2023-11-21T01:54:42;99736.72;;;12.14;67.80
78064;BME280;67429;51.596;-3.264;2023-11-21T01:57:08;99742.26;;;10.70;70.12
78064;BME280;67429;51.596;-3.264;2023-11-21T01:59:35;99740.68;;;9.72;72.33
78064;BME280;67429;51.596;-3.264;2023-11-21T02:01:59;99739.12;;;10.90;71.20
78064;BME280;67429;51.596;-3.264;2023-11-21T02:04:25;99741.30;;;11.66;66.87
78064;BME280;67429;51.596;-3.264;2023-11-21T02:06:50;99745.27;;;12.53;64.84
78064;BME280;67429;51.596;-3.264;2023-11-21T02:09:16;99748.87;;;10.25;69.57
78064;BME280;67429;51.596;-3.264;2023-11-21T02:11:42;99759.74;;;10.67;71.27
78064;BME280;67429;51.596;-3.264;2023-11-21T02:14:07;99753.72;;;10.97;68.72
78064;BME280;67429;51.596;-3.264;2023-11-21T02:16:33;99757.59;;;10.86;69.61
78064;BME280;67429;51.596;-3.264;2023-11-21T02:18:59;99764.23;;;12.70;64.44
78064;BME280;67429;51.596;-3.264;2023-11-21T02:21:25;99764.21;;;13.19;63.59
78064;BME280;67429;51.596;-3.264;2023-11-21T02:23:49;99758.26;;;12.46;62.77
78064;BME280;67429;51.596;-3.264;2023-11-21T02:26:15;99755.88;;;10.98;66.61
78064;BME280;67429;51.596;-3.264;2023-11-21T02:28:41;99756.78;;;11.85;65.09
78064;BME280;67429;51.596;-3.264;2023-11-21T02:31:06;99751.89;;;11.94;65.32
78064;BME280;67429;51.596;-3.264;2023-11-21T02:33:32;99753.77;;;11.84;65.05
78064;BME280;67429;51.596;-3.264;2023-11-21T02:35:58;99754.65;;;12.58;62.97
78064;BME280;67429;51.596;-3.264;2023-11-21T02:38:23;99755.70;;;12.05;63.56
78064;BME280;67429;51.596;-3.264;2023-11-21T02:40:49;99760.06;;;11.60;65.66
78064;BME280;67429;51.596;-3.264;2023-11-21T02:43:14;99765.34;;;11.73;64.63
78064;BME280;67429;51.596;-3.264;2023-11-21T02:45:40;99771.10;;;10.74;68.60
78064;BME280;67429;51.596;-3.264;2023-11-21T02:48:06;99773.85;;;10.60;69.11
78064;BME280;67429;51.596;-3.264;2023-11-21T02:50:32;99781.42;;;11.80;67.14
78064;BME280;67429;51.596;-3.264;2023-11-21T02:52:57;99788.08;;;11.89;66.31
78064;BME280;67429;51.596;-3.264;2023-11-21T02:55:22;99800.76;;;10.70;70.48
78064;BME280;67429;51.596;-3.264;2023-11-21T02:57:48;99800.84;;;10.78;69.73
78064;BME280;67429;51.596;-3.264;2023-11-21T03:00:14;99803.16;;;10.50;72.36
78064;BME280;67429;51.596;-3.264;2023-11-21T03:02:39;99814.74;;;11.12;70.73
78064;BME280;67429;51.596;-3.264;2023-11-21T03:05:06;99820.11;;;10.35;72.63
78064;BME280;67429;51.596;-3.264;2023-11-21T03:07:30;99826.54;;;11.02;71.41
78064;BME280;67429;51.596;-3.264;2023-11-21T03:09:56;99836.69;;;8.93;75.23
78064;BME280;67429;51.596;-3.264;2023-11-21T03:12:22;99840.26;;;8.45;78.61
78064;BME280;67429;51.596;-3.264;2023-11-21T03:14:47;99840.24;;;7.95;79.86
78064;BME280;67429;51.596;-3.264;2023-11-21T03:17:13;99847.17;;;7.68;79.15
78064;BME280;67429;51.596;-3.264;2023-11-21T03:19:38;99849.45;;;6.67;83.06
78064;BME280;67429;51.596;-3.264;2023-11-21T03:22:04;99852.62;;;7.44;80.88
78064;BME280;67429;51.596;-3.264;2023-11-21T03:24:30;99854.69;;;7.20;79.88
78064;BME280;67429;51.596;-3.264;2023-11-21T03:26:55;99867.76;;;7.48;79.37
78064;BME280;67429;51.596;-3.264;2023-11-21T03:29:21;99875.82;;;7.84;77.96
78064;BME280;67429;51.596;-3.264;2023-11-21T03:31:46;99870.09;;;7.78;77.53
78064;BME280;67429;51.596;-3.264;2023-11-21T03:34:15;99872.98;;;7.21;78.35
78064;BME280;67429;51.596;-3.264;2023-11-21T03:36:38;99879.62;;;7.41;77.80
78064;BME280;67429;51.596;-3.264;2023-11-21T03:39:03;99882.45;;;8.27;76.90
78064;BME280;67429;51.596;-3.264;2023-11-21T03:41:29;99887.37;;;7.52;77.93
78064;BME280;67429;51.596;-3.264;2023-11-21T03:43:55;99887.95;;;7.68;76.31
78064;BME280;67429;51.596;-3.264;2023-11-21T03:46:20;99889.31;;;8.20;76.05
78064;BME280;67429;51.596;-3.264;2023-11-21T03:48:46;99892.07;;;7.80;74.63
78064;BME280;67429;51.596;-3.264;2023-11-21T03:51:11;99889.93;;;7.03;74.84
78064;BME280;67429;51.596;-3.264;2023-11-21T03:53:37;99895.79;;;7.39;74.96
78064;BME280;67429;51.596;-3.264;2023-11-21T03:56:03;99890.21;;;6.99;76.50
78064;BME280;67429;51.596;-3.264;2023-11-21T03:58:29;99894.47;;;6.64;77.54
78064;BME280;67429;51.596;-3.264;2023-11-21T04:00:54;99894.53;;;6.79;77.18
78064;BME280;67429;51.596;-3.264;2023-11-21T04:03:20;99901.01;;;6.30;79.24
78064;BME280;67429;51.596;-3.264;2023-11-21T04:05:45;99901.12;;;5.74;80.54
78064;BME280;67429;51.596;-3.264;2023-11-21T04:08:11;99901.00;;;7.11;77.71
78064;BME280;67429;51.596;-3.264;2023-11-21T04:10:37;99908.28;;;7.89;76.09
78064;BME280;67429;51.596;-3.264;2023-11-21T04:13:02;99913.56;;;7.10;76.49
78064;BME280;67429;51.596;-3.264;2023-11-21T04:15:28;99918.12;;;7.39;76.85
78064;BME280;67429;51.596;-3.264;2023-11-21T04:17:54;99920.65;;;7.25;75.99
78064;BME280;67429;51.596;-3.264;2023-11-21T04:20:19;99930.28;;;8.30;73.47
78064;BME280;67429;51.596;-3.264;2023-11-21T04:22:45;99932.62;;;8.14;72.48
78064;BME280;67429;51.596;-3.264;2023-11-21T04:25:12;99935.78;;;8.65;71.49
78064;BME280;67429;51.596;-3.264;2023-11-21T04:27:36;99941.28;;;8.95;71.77
78064;BME280;67429;51.596;-3.264;2023-11-21T04:30:02;99947.07;;;8.32;71.66
78064;BME280;67429;51.596;-3.264;2023-11-21T04:32:28;99948.04;;;7.97;73.09
78064;BME280;67429;51.596;-3.264;2023-11-21T04:34:53;99955.12;;;7.97;73.90
78064;BME280;67429;51.596;-3.264;2023-11-21T04:37:19;99957.54;;;8.29;74.60
78064;BME280;67429;51.596;-3.264;2023-11-21T04:39:45;99965.45;;;8.40;73.41
78064;BME280;67429;51.596;-3.264;2023-11-21T04:42:10;99973.90;;;8.35;73.31
78064;BME280;67429;51.596;-3.264;2023-11-21T04:44:36;99972.44;;;7.98;72.86
78064;BME280;67429;51.596;-3.264;2023-11-21T04:47:02;99978.89;;;7.71;72.58
78064;BME280;67429;51.596;-3.264;2023-11-21T04:49:27;99974.72;;;7.33;73.94
78064;BME280;67429;51.596;-3.264;2023-11-21T04:51:53;99982.35;;;7.04;74.05
78064;BME280;67429;51.596;-3.264;2023-11-21T04:54:18;99974.72;;;6.47;76.67
78064;BME280;67429;51.596;-3.264;2023-11-21T04:56:44;99981.23;;;6.55;76.99
78064;BME280;67429;51.596;-3.264;2023-11-21T04:59:10;99981.99;;;6.64;75.96
78064;BME280;67429;51.596;-3.264;2023-11-21T05:01:35;99979.29;;;6.10;77.09
78064;BME280;67429;51.596;-3.264;2023-11-21T05:04:01;99987.84;;;6.54;77.34
78064;BME280;67429;51.596;-3.264;2023-11-21T05:06:27;99983.64;;;6.01;78.19
78064;BME280;67429;51.596;-3.264;2023-11-21T05:08:53;99987.78;;;5.93;79.94
78064;BME280;67429;51.596;-3.264;2023-11-21T05:11:24;99977.86;;;7.26;76.61
78064;BME280;67429;51.596;-3.264;2023-11-21T05:13:44;99978.03;;;6.35;76.46
78064;BME280;67429;51.596;-3.264;2023-11-21T05:16:10;99984.37;;;6.75;76.03
78064;BME280;67429;51.596;-3.264;2023-11-21T05:18:35;99989.37;;;6.65;76.49
78064;BME280;67429;51.596;-3.264;2023-11-21T05:21:01;99987.81;;;6.47;78.21
78064;BME280;67429;51.596;-3.264;2023-11-21T05:23:27;99994.44;;;6.90;77.61
78064;BME280;67429;51.596;-3.264;2023-11-21T05:25:52;99994.24;;;6.53;80.02
78064;BME280;67429;51.596;-3.264;2023-11-21T05:28:18;99991.82;;;6.17;79.87
78064;BME280;67429;51.596;-3.264;2023-11-21T05:30:43;99995.85;;;6.58;79.63
78064;BME280;67429;51.596;-3.264;2023-11-21T05:33:09;99995.26;;;6.65;79.37
78064;BME280;67429;51.596;-3.264;2023-11-21T05:35:35;99987.60;;;6.53;79.61
78064;BME280;67429;51.596;-3.264;2023-11-21T05:38:01;99992.00;;;5.90;82.13
78064;BME280;67429;51.596;-3.264;2023-11-21T05:40:26;99991.05;;;5.70;83.87
78064;BME280;67429;51.596;-3.264;2023-11-21T05:42:52;100003.99;;;5.57;84.68
78064;BME280;67429;51.596;-3.264;2023-11-21T05:45:18;99998.62;;;5.07;86.03
78064;BME280;67429;51.596;-3.264;2023-11-21T05:47:44;99996.81;;;5.22;85.33
78064;BME280;67429;51.596;-3.264;2023-11-21T05:50:10;100003.43;;;5.64;84.44
78064;BME280;67429;51.596;-3.264;2023-11-21T05:52:35;99994.97;;;5.23;84.41
78064;BME280;67429;51.596;-3.264;2023-11-21T05:55:00;100010.42;;;4.70;84.91
78064;BME280;67429;51.596;-3.264;2023-11-21T05:57:25;100006.59;;;5.05;84.52
78064;BME280;67429;51.596;-3.264;2023-11-21T05:59:52;100010.08;;;5.70;83.28
78064;BME280;67429;51.596;-3.264;2023-11-21T06:02:17;100007.26;;;4.90;83.44
78064;BME280;67429;51.596;-3.264;2023-11-21T06:04:43;100006.94;;;4.46;84.69
78064;BME280;67429;51.596;-3.264;2023-11-21T06:07:08;100011.38;;;4.58;83.38
78064;BME280;67429;51.596;-3.264;2023-11-21T06:09:35;100020.42;;;4.83;82.29
78064;BME280;67429;51.596;-3.264;2023-11-21T06:12:00;100025.05;;;4.49;82.99
78064;BME280;67429;51.596;-3.264;2023-11-21T06:14:25;100030.82;;;4.42;83.04
78064;BME280;67429;51.596;-3.264;2023-11-21T06:16:51;100037.70;;;4.43;82.83
78064;BME280;67429;51.596;-3.264;2023-11-21T06:19:17;100054.07;;;5.24;81.93
78064;BME280;67429;51.596;-3.264;2023-11-21T06:21:45;100058.38;;;4.74;82.35
78064;BME280;67429;51.596;-3.264;2023-11-21T06:24:08;100065.27;;;5.03;79.89
78064;BME280;67429;51.596;-3.264;2023-11-21T06:26:34;100062.14;;;4.66;80.55
78064;BME280;67429;51.596;-3.264;2023-11-21T06:29:00;100071.88;;;5.20;80.70
78064;BME280;67429;51.596;-3.264;2023-11-21T06:31:25;100069.01;;;5.02;80.82
78064;BME280;67429;51.596;-3.264;2023-11-21T06:33:51;100082.21;;;5.47;78.93
78064;BME280;67429;51.596;-3.264;2023-11-21T06:36:16;100086.72;;;5.14;78.24
78064;BME280;67429;51.596;-3.264;2023-11-21T06:38:42;100091.71;;;5.16;77.94
78064;BME280;67429;51.596;-3.264;2023-11-21T06:41:07;100102.11;;;5.95;75.49
78064;BME280;67429;51.596;-3.264;2023-11-21T06:43:33;100092.94;;;5.23;76.18
78064;BME280;67429;51.596;-3.264;2023-11-21T06:45:59;100103.54;;;5.74;75.46
78064;BME280;67429;51.596;-3.264;2023-11-21T06:48:25;100107.18;;;5.76;75.77
78064;BME280;67429;51.596;-3.264;2023-11-21T06:50:50;100104.98;;;5.63;75.24
78064;BME280;67429;51.596;-3.264;2023-11-21T06:53:16;100117.12;;;4.94;76.88
78064;BME280;67429;51.596;-3.264;2023-11-21T06:55:42;100118.61;;;5.56;75.73
78064;BME280;67429;51.596;-3.264;2023-11-21T06:58:07;100130.59;;;6.01;75.37
78064;BME280;67429;51.596;-3.264;2023-11-21T07:00:33;100137.19;;;6.08;73.89
78064;BME280;67429;51.596;-3.264;2023-11-21T07:02:59;100141.66;;;6.27;74.07
78064;BME280;67429;51.596;-3.264;2023-11-21T07:05:24;100158.86;;;6.22;73.56
78064;BME280;67429;51.596;-3.264;2023-11-21T07:07:50;100150.14;;;6.68;72.64
78064;BME280;67429;51.596;-3.264;2023-11-21T07:10:16;100151.36;;;6.03;71.40
78064;BME280;67429;51.596;-3.264;2023-11-21T07:12:42;100162.35;;;7.14;70.57
78064;BME280;67429;51.596;-3.264;2023-11-21T07:15:08;100171.55;;;6.30;70.94
78064;BME280;67429;51.596;-3.264;2023-11-21T07:17:33;100182.90;;;6.62;68.72
78064;BME280;67429;51.596;-3.264;2023-11-21T07:19:58;100191.84;;;6.89;68.77
78064;BME280;67429;51.596;-3.264;2023-11-21T07:22:24;100195.69;;;6.80;67.71
78064;BME280;67429;51.596;-3.264;2023-11-21T07:24:50;100213.14;;;6.79;69.53
78064;BME280;67429;51.596;-3.264;2023-11-21T07:27:16;100218.33;;;6.66;69.91
78064;BME280;67429;51.596;-3.264;2023-11-21T07:29:41;100216.79;;;8.34;67.05
78064;BME280;67429;51.596;-3.264;2023-11-21T07:32:07;100227.04;;;7.68;65.70
78064;BME280;67429;51.596;-3.264;2023-11-21T07:34:32;100224.84;;;7.66;65.49
78064;BME280;67429;51.596;-3.264;2023-11-21T07:36:58;100223.33;;;7.67;64.30
78064;BME280;67429;51.596;-3.264;2023-11-21T07:39:24;100222.01;;;7.30;67.07
78064;BME280;67429;51.596;-3.264;2023-11-21T07:41:49;100215.51;;;8.21;64.83
78064;BME280;67429;51.596;-3.264;2023-11-21T07:44:15;100225.90;;;7.50;66.49
78064;BME280;67429;51.596;-3.264;2023-11-21T07:46:41;100229.55;;;7.81;66.44
78064;BME280;67429;51.596;-3.264;2023-11-21T07:49:06;100227.15;;;8.20;62.73
78064;BME280;67429;51.596;-3.264;2023-11-21T07:51:32;100229.14;;;7.23;65.46
78064;BME280;67429;51.596;-3.264;2023-11-21T07:53:58;100224.18;;;6.96;67.03
78064;BME280;67429;51.596;-3.264;2023-11-21T07:56:23;100219.50;;;8.11;63.37
78064;BME280;67429;51.596;-3.264;2023-11-21T07:58:49;100219.52;;;6.98;65.23
78064;BME280;67429;51.596;-3.264;2023-11-21T08:01:14;100222.71;;;8.55;63.54
78064;BME280;67429;51.596;-3.264;2023-11-21T08:03:40;100235.26;;;7.85;64.13
78064;BME280;67429;51.596;-3.264;2023-11-21T08:06:06;100236.98;;;9.01;60.37
78064;BME280;67429;51.596;-3.264;2023-11-21T08:08:32;100245.43;;;9.88;58.96
78064;BME280;67429;51.596;-3.264;2023-11-21T08:10:58;100259.11;;;11.40;56.13
78064;BME280;67429;51.596;-3.264;2023-11-21T08:13:23;100273.11;;;11.74;55.03
78064;BME280;67429;51.596;-3.264;2023-11-21T08:15:49;100278.80;;;8.72;59.89
78064;BME280;67429;51.596;-3.264;2023-11-21T08:18:14;100288.80;;;7.44;63.51
78064;BME280;67429;51.596;-3.264;2023-11-21T08:20:40;100289.81;;;8.77;61.98
78064;BME280;67429;51.596;-3.264;2023-11-21T08:23:05;100293.53;;;8.99;61.99
78064;BME280;67429;51.596;-3.264;2023-11-21T08:25:31;100297.31;;;9.09;60.88
78064;BME280;67429;51.596;-3.264;2023-11-21T08:27:57;100297.70;;;8.95;61.40
78064;BME280;67429;51.596;-3.264;2023-11-21T08:30:22;100296.55;;;9.58;60.76
78064;BME280;67429;51.596;-3.264;2023-11-21T08:32:48;100301.23;;;8.97;60.34
78064;BME280;67429;51.596;-3.264;2023-11-21T08:35:14;100308.48;;;8.91;62.02
78064;BME280;67429;51.596;-3.264;2023-11-21T08:37:39;100318.10;;;8.03;63.96
78064;BME280;67429;51.596;-3.264;2023-11-21T08:40:07;100322.80;;;8.73;62.97
78064;BME280;67429;51.596;-3.264;2023-11-21T08:42:31;100333.92;;;9.35;62.05
78064;BME280;67429;51.596;-3.264;2023-11-21T08:44:56;100339.81;;;8.14;64.94
78064;BME280;67429;51.596;-3.264;2023-11-21T08:47:22;100341.29;;;7.96;65.50
78064;BME280;67429;51.596;-3.264;2023-11-21T08:49:48;100344.39;;;7.91;65.71
78064;BME280;67429;51.596;-3.264;2023-11-21T08:52:13;100346.26;;;8.31;65.17
78064;BME280;67429;51.596;-3.264;2023-11-21T08:54:39;100350.19;;;7.76;67.69
78064;BME280;67429;51.596;-3.264;2023-11-21T08:57:05;100355.81;;;7.86;68.81
78064;BME280;67429;51.596;-3.264;2023-11-21T08:59:31;100359.60;;;8.11;67.59
78064;BME280;67429;51.596;-3.264;2023-11-21T09:01:56;100362.24;;;8.94;65.20
78064;BME280;67429;51.596;-3.264;2023-11-21T09:04:22;100357.50;;;8.27;66.43
78064;BME280;67429;51.596;-3.264;2023-11-21T09:06:47;100357.79;;;7.30;69.45
78064;BME280;67429;51.596;-3.264;2023-11-21T09:09:13;100353.23;;;7.55;69.13
78064;BME280;67429;51.596;-3.264;2023-11-21T09:11:38;100354.01;;;7.49;68.76
78064;BME280;67429;51.596;-3.264;2023-11-21T09:14:05;100357.31;;;8.71;67.16
78064;BME280;67429;51.596;-3.264;2023-11-21T09:16:30;100368.80;;;8.55;67.10
78064;BME280;67429;51.596;-3.264;2023-11-21T09:18:56;100376.49;;;7.28;70.17
78064;BME280;67429;51.596;-3.264;2023-11-21T09:21:22;100368.88;;;7.50;71.49
78064;BME280;67429;51.596;-3.264;2023-11-21T09:23:48;100374.06;;;7.67;70.27
78064;BME280;67429;51.596;-3.264;2023-11-21T09:26:13;100373.12;;;7.53;71.01
78064;BME280;67429;51.596;-3.264;2023-11-21T09:28:38;100380.89;;;8.15;70.52
78064;BME280;67429;51.596;-3.264;2023-11-21T09:31:04;100378.35;;;7.74;69.71
78064;BME280;67429;51.596;-3.264;2023-11-21T09:33:29;100379.53;;;7.99;69.07
78064;BME280;67429;51.596;-3.264;2023-11-21T09:35:55;100375.30;;;8.47;68.11
78064;BME280;67429;51.596;-3.264;2023-11-21T09:38:20;100378.30;;;8.33;68.63
78064;BME280;67429;51.596;-3.264;2023-11-21T09:40:46;100383.07;;;7.54;70.33
78064;BME280;67429;51.596;-3.264;2023-11-21T09:43:16;100382.87;;;7.74;70.71
78064;BME280;67429;51.596;-3.264;2023-11-21T09:45:39;100384.58;;;8.24;68.72
78064;BME280;67429;51.596;-3.264;2023-11-21T09:48:03;100388.78;;;8.63;68.60
78064;BME280;67429;51.596;-3.264;2023-11-21T09:50:29;100392.24;;;8.41;69.24
78064;BME280;67429;51.596;-3.264;2023-11-21T09:52:58;100389.38;;;7.51;71.71
78064;BME280;67429;51.596;-3.264;2023-11-21T09:55:21;100397.57;;;8.73;68.95
78064;BME280;67429;51.596;-3.264;2023-11-21T09:57:46;100393.16;;;7.95;70.18
78064;BME280;67429;51.596;-3.264;2023-11-21T10:00:13;100399.74;;;8.77;67.64
78064;BME280;67429;51.596;-3.264;2023-11-21T10:02:38;100405.22;;;8.02;70.70
78064;BME280;67429;51.596;-3.264;2023-11-21T10:05:03;100407.58;;;8.27;68.83
78064;BME280;67429;51.596;-3.264;2023-11-21T10:07:28;100410.00;;;8.06;69.90
78064;BME280;67429;51.596;-3.264;2023-11-21T10:09:55;100415.31;;;8.77;68.62
78064;BME280;67429;51.596;-3.264;2023-11-21T10:12:20;100418.66;;;9.14;67.84
78064;BME280;67429;51.596;-3.264;2023-11-21T10:14:48;100430.17;;;9.57;64.83
78064;BME280;67429;51.596;-3.264;2023-11-21T10:17:12;100443.80;;;9.39;64.77
78064;BME280;67429;51.596;-3.264;2023-11-21T10:19:37;100445.11;;;9.15;66.12
78064;BME280;67429;51.596;-3.264;2023-11-21T10:22:02;100452.16;;;8.20;67.86
78064;BME280;67429;51.596;-3.264;2023-11-21T10:24:28;100456.66;;;7.47;69.29
78064;BME280;67429;51.596;-3.264;2023-11-21T10:26:53;100457.36;;;7.54;70.39
78064;BME280;67429;51.596;-3.264;2023-11-21T10:29:19;100448.65;;;7.66;72.60
78064;BME280;67429;51.596;-3.264;2023-11-21T10:31:44;100446.61;;;7.88;70.96
78064;BME280;67429;51.596;-3.264;2023-11-21T10:34:13;100453.76;;;8.13;71.30
78064;BME280;67429;51.596;-3.264;2023-11-21T10:36:36;100452.33;;;8.13;70.70
78064;BME280;67429;51.596;-3.264;2023-11-21T10:39:01;100450.30;;;7.76;71.64
78064;BME280;67429;51.596;-3.264;2023-11-21T10:41:27;100453.57;;;8.40;72.02
78064;BME280;67429;51.596;-3.264;2023-11-21T10:43:53;100454.09;;;8.63;70.75
78064;BME280;67429;51.596;-3.264;2023-11-21T10:46:18;100457.34;;;9.04;67.73
78064;BME280;67429;51.596;-3.264;2023-11-21T10:48:44;100458.66;;;10.31;65.62
78064;BME280;67429;51.596;-3.264;2023-11-21T10:51:09;100460.92;;;8.72;67.90
78064;BME280;67429;51.596;-3.264;2023-11-21T10:53:38;100458.69;;;8.23;69.84
78064;BME280;67429;51.596;-3.264;2023-11-21T10:56:05;100456.57;;;7.44;71.51
78064;BME280;67429;51.596;-3.264;2023-11-21T10:58:26;100450.86;;;7.61;72.16
78064;BME280;67429;51.596;-3.264;2023-11-21T11:00:52;100446.85;;;8.78;70.33
78064;BME280;67429;51.596;-3.264;2023-11-21T11:03:18;100441.45;;;7.71;72.48
78064;BME280;67429;51.596;-3.264;2023-11-21T11:05:44;100446.04;;;8.18;71.43
78064;BME280;67429;51.596;-3.264;2023-11-21T11:08:11;100442.70;;;6.28;75.66
78064;BME280;67429;51.596;-3.264;2023-11-21T11:10:34;100444.58;;;7.48;73.45
78064;BME280;67429;51.596;-3.264;2023-11-21T11:13:00;100447.20;;;8.27;71.11
78064;BME280;67429;51.596;-3.264;2023-11-21T11:15:26;100445.79;;;7.61;72.67
78064;BME280;67429;51.596;-3.264;2023-11-21T11:17:52;100448.04;;;8.08;72.34
78064;BME280;67429;51.596;-3.264;2023-11-21T11:20:18;100444.32;;;7.71;71.39
78064;BME280;67429;51.596;-3.264;2023-11-21T11:22:50;100444.71;;;6.92;75.61
78064;BME280;67429;51.596;-3.264;2023-11-21T11:25:18;100453.98;;;7.49;74.14
78064;BME280;67429;51.596;-3.264;2023-11-21T11:27:37;100449.16;;;7.70;74.03
78064;BME280;67429;51.596;-3.264;2023-11-21T11:30:08;100451.27;;;8.39;70.85
78064;BME280;67429;51.596;-3.264;2023-11-21T11:32:29;100454.53;;;8.79;69.03
78064;BME280;67429;51.596;-3.264;2023-11-21T11:34:56;100457.28;;;8.59;68.61
78064;BME280;67429;51.596;-3.264;2023-11-21T11:37:17;100463.06;;;9.24;68.43
78064;BME280;67429;51.596;-3.264;2023-11-21T11:39:42;100469.41;;;7.96;71.36
78064;BME280;67429;51.596;-3.264;2023-11-21T11:42:13;100476.65;;;8.71;68.93
78064;BME280;67429;51.596;-3.264;2023-11-21T11:44:47;100479.23;;;8.81;68.81
78064;BME280;67429;51.596;-3.264;2023-11-21T11:46:59;100490.30;;;8.81;68.56
78064;BME280;67429;51.596;-3.264;2023-11-21T11:49:25;100486.58;;;8.64;67.99
78064;BME280;67429;51.596;-3.264;2023-11-21T11:54:15;100486.57;;;8.45;68.37
78064;BME280;67429;51.596;-3.264;2023-11-21T11:56:41;100495.50;;;8.68;67.30
78064;BME280;67429;51.596;-3.264;2023-11-21T11:59:07;100503.72;;;9.08;65.93
78064;BME280;67429;51.596;-3.264;2023-11-21T12:01:33;100505.38;;;8.40;67.59
78064;BME280;67429;51.596;-3.264;2023-11-21T12:06:32;100512.49;;;8.20;68.76
78064;BME280;67429;51.596;-3.264;2023-11-21T12:08:51;100514.12;;;9.71;64.77
78064;BME280;67429;51.596;-3.264;2023-11-21T12:11:18;100509.78;;;9.23;64.98
78064;BME280;67429;51.596;-3.264;2023-11-21T12:13:41;100500.50;;;10.28;62.73
78064;BME280;67429;51.596;-3.264;2023-11-21T12:16:07;100507.23;;;10.67;62.49
78064;BME280;67429;51.596;-3.264;2023-11-21T12:18:32;100516.80;;;9.67;62.30
78064;BME280;67429;51.596;-3.264;2023-11-21T12:20:58;100513.82;;;9.13;64.08
78064;BME280;67429;51.596;-3.264;2023-11-21T12:23:23;100512.20;;;9.51;63.80
78064;BME280;67429;51.596;-3.264;2023-11-21T12:25:48;100516.16;;;9.16;65.64
78064;BME280;67429;51.596;-3.264;2023-11-21T12:28:14;100520.85;;;10.74;61.06
78064;BME280;67429;51.596;-3.264;2023-11-21T12:30:40;100527.39;;;9.57;62.26
78064;BME280;67429;51.596;-3.264;2023-11-21T12:33:06;100526.88;;;7.94;67.96
78064;BME280;67429;51.596;-3.264;2023-11-21T12:35:33;100534.89;;;9.12;65.34
78064;BME280;67429;51.596;-3.264;2023-11-21T12:37:57;100526.44;;;10.90;61.37
78064;BME280;67429;51.596;-3.264;2023-11-21T12:40:23;100535.77;;;10.61;60.60
78064;BME280;67429;51.596;-3.264;2023-11-21T12:42:51;100538.00;;;9.98;61.86
78064;BME280;67429;51.596;-3.264;2023-11-21T12:45:21;100545.59;;;10.29;60.99
78064;BME280;67429;51.596;-3.264;2023-11-21T12:47:40;100549.48;;;9.81;61.72